createdAt,value
2024-02-13T05:41:06.859Z,6.05
2024-02-13T05:44:09.484Z,5.30
2024-02-13T05:47:12.370Z,5.57
2024-02-13T05:50:17.710Z,5.60
2024-02-13T05:53:20.631Z,4.95
2024-02-13T05:56:27.569Z,4.97
2024-02-13T05:59:33.126Z,5.00
2024-02-13T06:02:35.730Z,4.87
2024-02-13T06:05:38.466Z,5.25
2024-02-13T06:08:41.113Z,5.65
2024-02-13T06:11:43.782Z,5.30
2024-02-13T06:14:48.381Z,5.85
2024-02-13T06:17:51.058Z,4.72
2024-02-13T06:20:55.220Z,5.20
2024-02-13T06:23:57.823Z,5.32
2024-02-13T06:27:00.437Z,5.22
2024-02-13T06:30:03.817Z,5.50
2024-02-13T06:33:10.037Z,5.25
2024-02-13T06:36:12.618Z,5.78
2024-02-13T06:39:17.015Z,5.78
2024-02-13T06:42:20.385Z,5.25
2024-02-13T06:45:22.867Z,5.75
2024-02-13T06:48:25.535Z,6.12
2024-02-13T06:51:28.372Z,5.47
2024-02-13T06:54:31.863Z,5.65
2024-02-13T06:57:36.410Z,5.72
2024-02-13T07:00:38.939Z,6.37
2024-02-13T07:03:43.022Z,6.20
2024-02-13T07:06:58.507Z,6.30
2024-02-13T07:10:08.988Z,5.65
2024-02-13T07:13:29.994Z,4.95
2024-02-13T07:16:40.227Z,6.00
2024-02-13T07:19:43.746Z,5.78
2024-02-13T07:22:47.506Z,5.53
2024-02-13T07:25:50.133Z,6.15
2024-02-13T07:28:53.230Z,6.55
2024-02-13T07:31:55.927Z,6.55
2024-02-13T07:35:04.387Z,5.40
2024-02-13T07:38:09.882Z,5.35
2024-02-13T07:41:12.618Z,4.82
2024-02-13T07:44:15.357Z,3.45
2024-02-13T07:47:18.007Z,4.07
2024-02-13T07:50:22.607Z,4.85
2024-02-13T07:53:26.160Z,3.95
2024-02-13T07:56:31.729Z,4.45
2024-02-13T07:59:34.275Z,5.03
2024-02-13T08:02:36.865Z,4.65
2024-02-13T08:05:40.963Z,3.40
2024-02-13T08:08:43.587Z,3.83
2024-02-13T08:11:46.481Z,3.20
2024-02-13T08:14:49.594Z,4.75
2024-02-13T08:17:52.085Z,4.45
2024-02-13T08:20:54.821Z,4.40
2024-02-13T08:23:57.609Z,3.95
2024-02-13T08:27:00.901Z,3.72
2024-02-13T08:30:07.987Z,3.28
2024-02-13T08:33:11.928Z,3.40
2024-02-13T08:36:14.603Z,3.08
2024-02-13T08:39:17.064Z,3.28
2024-02-13T08:42:19.804Z,3.37
2024-02-13T08:45:24.730Z,3.70
2024-02-13T08:48:30.987Z,3.12
2024-02-13T08:51:36.776Z,2.75
2024-02-13T08:54:42.767Z,3.60
2024-02-13T08:57:47.193Z,3.08
2024-02-13T09:00:51.537Z,2.15
2024-02-13T09:03:57.265Z,3.45
2024-02-13T09:07:00.994Z,2.70
2024-02-13T09:10:03.730Z,3.55
2024-02-13T09:13:07.478Z,3.20
2024-02-13T09:16:13.230Z,2.75
2024-02-13T09:19:16.844Z,3.25
2024-02-13T09:22:19.842Z,2.55
2024-02-13T09:25:23.053Z,3.35
2024-02-13T09:28:26.438Z,2.75
2024-02-13T09:31:29.650Z,1.80
2024-02-13T09:34:33.162Z,2.53
2024-02-13T09:37:44.613Z,2.58
2024-02-13T09:40:50.136Z,1.90
2024-02-13T09:43:53.050Z,1.87
2024-02-13T09:46:55.493Z,2.20
2024-02-13T09:49:57.971Z,2.50
2024-02-13T09:53:01.645Z,1.62
2024-02-13T09:56:04.253Z,1.98
2024-02-13T09:59:08.064Z,2.20
2024-02-13T10:02:10.478Z,2.75
2024-02-13T10:05:13.029Z,1.85
2024-02-13T10:08:18.047Z,2.33
2024-02-13T10:11:30.999Z,2.10
2024-02-13T10:14:33.624Z,2.20
2024-02-13T10:17:36.493Z,2.90
2024-02-13T10:20:40.432Z,2.50
2024-02-13T10:23:43.001Z,2.70
2024-02-13T10:26:45.901Z,2.55
2024-02-13T10:29:48.536Z,2.90
2024-02-13T10:32:51.172Z,2.90
2024-02-13T10:35:58.940Z,2.60
2024-02-13T10:39:02.754Z,1.98
2024-02-13T10:42:10.120Z,2.25
2024-02-13T10:45:12.949Z,2.30
2024-02-13T10:48:30.280Z,2.60
2024-02-13T10:51:35.167Z,2.15
2024-02-13T10:54:38.840Z,2.45
2024-02-13T10:57:41.418Z,2.90
2024-02-13T11:00:43.948Z,2.80
2024-02-13T11:03:46.751Z,2.70
2024-02-13T11:06:49.338Z,2.30
2024-02-13T11:09:51.781Z,2.53
2024-02-13T11:12:55.881Z,2.42
2024-02-13T11:15:59.354Z,2.37
2024-02-13T11:19:22.161Z,2.60
2024-02-13T11:22:38.361Z,3.28
2024-02-13T11:25:43.753Z,1.95
2024-02-13T11:28:48.268Z,2.78
2024-02-13T11:31:59.468Z,2.43
2024-02-13T11:35:07.432Z,2.50
2024-02-13T11:38:17.576Z,2.90
2024-02-13T11:41:21.801Z,2.53
2024-02-13T11:44:24.933Z,1.77
2024-02-13T11:47:28.451Z,2.28
2024-02-13T11:50:31.251Z,2.78
2024-02-13T11:53:35.068Z,2.37
2024-02-13T11:56:37.678Z,2.97
2024-02-13T11:59:42.362Z,2.53
2024-02-13T12:02:56.037Z,1.90
2024-02-13T12:05:59.398Z,2.50
2024-02-13T12:09:02.008Z,2.30
2024-02-13T12:12:06.243Z,1.67
2024-02-13T12:15:12.240Z,1.87
2024-02-13T12:18:18.934Z,2.40
2024-02-13T12:21:21.532Z,1.60
2024-02-13T12:24:24.402Z,1.92
2024-02-13T12:27:26.885Z,2.80
2024-02-13T12:30:38.820Z,2.90
2024-02-13T12:33:43.081Z,2.37
2024-02-13T12:36:46.311Z,2.83
2024-02-13T12:39:49.853Z,2.00
2024-02-13T12:42:56.441Z,1.92
2024-02-13T12:46:06.847Z,2.40
2024-02-13T12:49:11.710Z,1.83
2024-02-13T12:52:23.655Z,2.00
2024-02-13T12:55:27.102Z,1.98
2024-02-13T12:58:29.501Z,1.85
2024-02-13T13:01:39.180Z,2.60
2024-02-13T13:04:42.190Z,2.67
2024-02-13T13:07:47.458Z,3.00
2024-02-13T13:13:55.820Z,2.40
2024-02-13T13:20:01.550Z,1.65
2024-02-13T13:23:06.455Z,2.00
2024-02-13T13:26:10.075Z,2.20
2024-02-13T13:29:15.093Z,2.37
2024-02-13T13:32:18.717Z,1.80
2024-02-13T13:35:23.001Z,3.05
2024-02-13T13:38:26.744Z,2.55
2024-02-13T13:41:31.795Z,2.15
2024-02-13T13:44:35.457Z,3.35
2024-02-13T13:47:38.333Z,1.62
2024-02-13T13:50:41.448Z,3.03
2024-02-13T13:53:45.263Z,2.20
2024-02-13T13:56:47.846Z,1.23
2024-02-13T13:59:50.396Z,2.10
2024-02-13T14:02:52.987Z,2.12
2024-02-13T14:05:56.458Z,1.92
2024-02-13T14:08:59.015Z,2.00
2024-02-13T14:12:06.677Z,1.52
2024-02-13T14:15:09.203Z,1.73
2024-02-13T14:18:13.059Z,1.60
2024-02-13T14:21:15.764Z,1.42
2024-02-13T14:24:18.164Z,1.70
2024-02-13T14:27:20.655Z,2.00
2024-02-13T14:30:23.152Z,2.00
2024-02-13T14:33:25.829Z,2.47
2024-02-13T14:36:28.533Z,1.58
2024-02-13T14:39:31.029Z,1.65
2024-02-13T14:42:34.097Z,2.40
2024-02-13T14:45:37.144Z,1.70
2024-02-13T14:48:39.891Z,1.52
2024-02-13T14:51:42.449Z,2.20
2024-02-13T14:54:48.544Z,2.33
2024-02-13T14:58:00.700Z,2.10
2024-02-13T15:01:13.930Z,2.45
2024-02-13T15:04:16.483Z,2.00
2024-02-13T15:07:20.159Z,1.55
2024-02-13T15:10:23.318Z,1.52
2024-02-13T15:13:25.799Z,1.58
2024-02-13T15:16:29.527Z,2.00
2024-02-13T15:19:32.249Z,1.65
2024-02-13T15:22:34.917Z,1.35
2024-02-13T15:25:37.544Z,1.87
2024-02-13T15:28:40.106Z,2.20
2024-02-13T15:31:43.880Z,1.92
2024-02-13T15:34:57.936Z,3.17
2024-02-13T15:38:19.528Z,6.22
2024-02-13T15:41:41.101Z,2.25
2024-02-13T15:45:02.627Z,2.17
2024-02-13T15:48:08.408Z,1.70
2024-02-13T15:51:10.978Z,1.23
2024-02-13T15:54:13.807Z,1.80
2024-02-13T15:57:17.172Z,1.25
2024-02-13T16:00:28.126Z,1.52
